Portada
METAR-TAF:

METAR-TAF

Aeroports :

N'Djamena, Txad

latitud: 12-08N, longitud: 015-02E, altitud: 295 m

Observació

L'informe es va fer fa 10 hores i 59 minuts, a les 09:00 UTC
Vent 5 kt del Est/Sud-Est, variant entre Est/Sud-Est i Sud/Sud-Oest
Temperatura 32°C
Humitat 56%
Pressió 1011 hPa
Visibilitat 10 km o més
sense núvols per sota de 1500 mi sense presència de cumulonimbus.

METAR: FTTJ 210900Z 12005KT 120V210 CAVOK 32/22 Q1011 NOSIG

Hora: 20:59 (19:59 UTC)

Pronòstic

L'informe es va fer fa 38 hores i 59 minuts, a les 05:00 UTC
Pronòstic vàlid del 20 a les 06 UTC al 21 a les 12 UTC
Vent 6 kt del Sud/Sud-Oest
Escasses núvols a una alçada de 3000 ft
Probabilitat 30% :
Temporalment
l' 20 a les 15 UTC al 20 a les 21 UTC
tempesta

TAF: FTTJ 200500Z 2006/2112 20006KT FEW030 PROB30 TEMPO 2015/2021 TS

Observacions i pronòstics meteorològics de més de 4000 aeroports (METAR i TAF).

Les estacions disponibles són els punts grocs i vermells al mapa.

Posi el ratolí al punt desitjat per veure el nom de l'estació.

Feu clic per veure les observacions i els pronòstics meteorològics.

Per canviar el mapa: feu clic els botons verds amb una creu de color negre per apropar; al botó verd amb un guió per allunyar la imatge; o en les fletxes verdes per a mapes adjacents.


METAR-TAF: